Terminal Aerodrome Forecast
Issued by NWS

Home | Current Version | Previous Version | Graphics & Text | Print | Product List | Glossary On
Versions: 1 2 3 4 5 6 7 8 9 10 11 12 13 14 15 16 17 18 19 20
000
FTUS43 KTOP 180300 AAA
TAFMHK
TAF AMD
KMHK 180332Z 1804/1824 11003KT P6SM FEW200
     FM180500 VRB20G35KT P6SM -TSRA SCT025CB BKN070
     FM180700 14002KT P6SM -SHRA VCTS SCT035CB BKN100
     FM181000 15005KT P6SM BKN120
     FM181400 20009KT P6SM SKC=

USA.gov is the U.S. government's official web portal to all federal, state and local government web resources and services.